createdAt,value
2019-01-18T09:23:36.440Z,143.43
2019-01-18T09:26:09.479Z,157.00
2019-01-18T09:28:43.578Z,153.80
2019-01-18T09:31:16.824Z,151.40
2019-01-18T09:33:49.670Z,135.23
2019-01-18T09:36:22.777Z,118.13
2019-01-18T09:38:55.665Z,148.73
2019-01-18T09:41:28.655Z,115.87
2019-01-18T09:44:02.913Z,121.00
2019-01-18T09:46:36.147Z,154.83
2019-01-18T09:49:09.253Z,116.37
2019-01-18T09:51:42.494Z,119.83
2019-01-18T09:54:15.782Z,103.47
2019-01-18T09:56:49.442Z,105.87
2019-01-18T09:59:22.438Z,106.17
2019-01-18T10:01:55.683Z,109.10
2019-01-18T10:04:28.655Z,105.30
2019-01-18T10:07:01.894Z,104.63
2019-01-18T10:09:34.813Z,111.83
2019-01-18T10:12:11.108Z,91.07
2019-01-18T10:14:44.828Z,106.57
2019-01-18T10:17:18.222Z,111.07
2019-01-18T10:19:52.575Z,132.40
2019-01-18T10:22:26.213Z,116.07
2019-01-18T10:24:59.675Z,105.33
2019-01-18T10:27:32.705Z,105.67
2019-01-18T10:30:06.932Z,99.03
2019-01-18T10:32:40.259Z,91.70
2019-01-18T10:35:13.621Z,81.53
2019-01-18T10:37:47.061Z,79.50
2019-01-18T10:40:20.409Z,79.20
2019-01-18T10:42:55.551Z,71.43
2019-01-18T10:45:29.131Z,80.17
2019-01-18T10:48:02.531Z,80.60
2019-01-18T10:50:37.110Z,71.07
2019-01-18T10:53:10.882Z,82.60
2019-01-18T10:55:43.907Z,102.57
2019-01-18T10:58:17.698Z,94.00
2019-01-18T11:01:07.032Z,93.33
2019-01-18T11:03:40.243Z,76.13
2019-01-18T11:06:13.667Z,77.47
2019-01-18T11:08:47.007Z,88.37
2019-01-18T11:11:21.827Z,75.23
2019-01-18T11:13:57.454Z,75.53
2019-01-18T11:16:30.710Z,90.07
2019-01-18T11:19:04.380Z,98.63
2019-01-18T11:21:37.588Z,100.57
2019-01-18T11:24:10.552Z,88.77
2019-01-18T11:26:43.387Z,92.63
2019-01-18T11:29:16.407Z,89.83
2019-01-18T11:31:49.567Z,79.83
2019-01-18T11:34:22.317Z,78.63
2019-01-18T11:36:57.349Z,75.47
2019-01-18T11:39:30.186Z,75.20
2019-01-18T11:42:05.306Z,59.13
2019-01-18T11:44:37.719Z,61.83
2019-01-18T11:47:11.033Z,56.00
2019-01-18T11:49:46.229Z,51.07
2019-01-18T11:52:19.520Z,55.17
2019-01-18T11:54:53.869Z,64.43
2019-01-18T11:57:26.842Z,78.97
2019-01-18T11:59:59.857Z,73.50
2019-01-18T12:02:33.466Z,59.07
2019-01-18T12:05:06.304Z,47.37
2019-01-18T12:07:39.012Z,66.93
2019-01-18T12:10:21.750Z,45.10
2019-01-18T12:12:54.500Z,53.27
2019-01-18T12:15:27.720Z,53.23
2019-01-18T12:18:01.027Z,60.00
2019-01-18T12:20:36.859Z,55.20
2019-01-18T12:23:10.279Z,52.37
2019-01-18T12:25:43.315Z,48.10
2019-01-18T12:28:16.717Z,51.33
2019-01-18T12:30:49.817Z,58.23
2019-01-18T12:33:22.995Z,55.87
2019-01-18T12:36:16.468Z,65.13
2019-01-18T12:38:49.571Z,68.47
2019-01-18T12:41:22.672Z,78.00
2019-01-18T12:43:57.565Z,78.10
2019-01-18T12:46:30.577Z,78.30
2019-01-18T12:49:04.073Z,77.50
2019-01-18T12:51:37.476Z,82.20
2019-01-18T12:54:10.683Z,74.30
2019-01-18T12:56:43.839Z,64.87
2019-01-18T12:59:17.132Z,56.77
2019-01-18T13:01:50.288Z,63.87
2019-01-18T13:04:23.471Z,71.77
2019-01-18T13:06:56.339Z,70.83
2019-01-18T13:09:29.452Z,64.60
2019-01-18T13:12:02.574Z,68.70
2019-01-18T13:14:35.681Z,67.37
2019-01-18T13:17:08.833Z,91.93
2019-01-18T13:19:42.056Z,73.87
2019-01-18T13:22:18.294Z,72.37
2019-01-18T13:24:51.475Z,102.77
2019-01-18T13:27:24.513Z,84.23
2019-01-18T13:29:57.782Z,71.17
2019-01-18T13:32:31.283Z,76.07
2019-01-18T13:35:05.039Z,76.13
2019-01-18T13:37:38.065Z,77.53
2019-01-18T13:40:19.228Z,70.07
2019-01-18T13:42:52.216Z,89.50
2019-01-18T13:45:26.209Z,85.77
2019-01-18T13:47:59.429Z,87.50
2019-01-18T13:50:32.328Z,84.87
2019-01-18T13:53:05.543Z,98.20
2019-01-18T13:55:38.704Z,105.47
2019-01-18T13:58:11.658Z,106.27
2019-01-18T14:00:44.841Z,86.43
2019-01-18T14:03:17.965Z,87.53
2019-01-18T14:05:51.045Z,174.10
2019-01-18T14:08:24.357Z,152.37
2019-01-18T14:10:57.593Z,160.20
2019-01-18T14:13:30.672Z,176.20
2019-01-18T14:16:04.022Z,169.27
2019-01-18T14:18:36.938Z,159.60
2019-01-18T14:21:09.942Z,144.43
2019-01-18T14:23:43.373Z,180.83
2019-01-18T14:26:16.789Z,169.17
2019-01-18T14:28:50.204Z,155.60
2019-01-18T14:31:23.326Z,201.17
2019-01-18T14:33:56.571Z,138.90
2019-01-18T14:36:29.600Z,142.80
2019-01-18T14:39:04.264Z,139.67
2019-01-18T14:41:37.290Z,131.40
2019-01-18T14:44:10.948Z,115.93
2019-01-18T14:46:44.187Z,144.17
2019-01-18T14:49:17.287Z,133.17
2019-01-18T14:51:50.338Z,131.63
2019-01-18T14:54:24.826Z,114.73
2019-01-18T14:56:57.777Z,104.93
2019-01-18T14:59:30.924Z,120.83
2019-01-18T15:02:05.587Z,125.93
2019-01-18T15:04:39.160Z,117.50
2019-01-18T15:07:12.296Z,124.23
2019-01-18T15:09:45.809Z,135.50
2019-01-18T15:12:19.266Z,157.93
2019-01-18T15:14:52.779Z,181.00
2019-01-18T15:17:25.784Z,169.80
2019-01-18T15:19:59.202Z,143.87
2019-01-18T15:22:32.894Z,144.93
2019-01-18T15:25:07.140Z,137.00
2019-01-18T15:27:41.501Z,129.60
2019-01-18T15:30:18.318Z,143.13
2019-01-18T15:32:51.586Z,134.33
2019-01-18T15:35:27.976Z,150.33
2019-01-18T15:38:01.662Z,130.70
2019-01-18T15:40:36.926Z,121.27
2019-01-18T15:43:11.224Z,183.63
2019-01-18T15:45:44.692Z,174.33
2019-01-18T15:48:18.997Z,151.53
2019-01-18T15:50:52.268Z,142.77
2019-01-18T15:53:25.725Z,143.40
2019-01-18T16:00:43.094Z,135.63
2019-01-18T16:03:16.577Z,137.13
2019-01-18T16:05:49.793Z,134.40
2019-01-18T16:08:23.345Z,127.43
2019-01-18T16:10:56.602Z,142.23
2019-01-18T16:13:31.272Z,155.83
2019-01-18T16:17:01.248Z,139.07
2019-01-18T16:19:34.275Z,176.33
2019-01-18T16:22:07.612Z,172.57
2019-01-18T16:24:41.129Z,162.27
2019-01-18T16:27:17.347Z,194.97
2019-01-18T16:29:50.416Z,173.20
2019-01-18T16:32:23.186Z,157.13
2019-01-18T16:34:56.125Z,171.10
2019-01-18T16:37:29.162Z,152.17
2019-01-18T16:40:02.263Z,164.47
2019-01-18T16:42:35.965Z,164.07
2019-01-18T16:45:10.189Z,145.60
2019-01-18T16:47:43.702Z,199.07
2019-01-18T16:50:17.110Z,144.13
2019-01-18T16:52:50.206Z,172.13
2019-01-18T16:55:23.175Z,173.53
2019-01-18T16:57:56.354Z,162.47
2019-01-18T17:00:34.272Z,167.20
2019-01-18T17:03:07.859Z,200.77
2019-01-18T17:05:41.086Z,191.70
2019-01-18T17:08:17.198Z,174.30
2019-01-18T17:10:51.819Z,160.27
2019-01-18T17:13:25.966Z,153.73
2019-01-18T17:15:59.333Z,175.90
2019-01-18T17:18:32.326Z,207.57
2019-01-18T17:21:05.680Z,199.63
2019-01-18T17:23:39.245Z,178.57
2019-01-18T17:26:12.643Z,181.80
2019-01-18T17:28:45.881Z,177.70
2019-01-18T17:31:19.362Z,177.83
2019-01-18T17:33:52.991Z,159.67
2019-01-18T17:36:39.201Z,167.90
2019-01-18T17:39:58.913Z,148.67
2019-01-18T17:43:26.384Z,142.70
2019-01-18T17:46:52.868Z,152.70
2019-01-18T17:50:30.796Z,158.23
2019-01-18T17:54:06.344Z,157.00
2019-01-18T17:57:50.395Z,140.73
2019-01-18T18:01:49.548Z,156.33
2019-01-18T18:05:10.917Z,148.13
2019-01-18T18:08:24.536Z,134.77
2019-01-18T18:11:53.112Z,126.37
2019-01-18T18:15:30.920Z,132.77
2019-01-18T18:18:46.739Z,124.60
2019-01-18T18:22:05.872Z,126.10
2019-01-18T18:25:27.627Z,192.90
2019-01-18T18:29:11.307Z,169.27
2019-01-18T18:32:39.984Z,121.80
2019-01-18T18:36:17.369Z,146.50
2019-01-18T18:39:45.988Z,176.77
2019-01-18T18:43:49.153Z,157.93
2019-01-18T18:47:05.457Z,116.90
2019-01-18T18:50:43.782Z,100.93
2019-01-18T18:54:01.044Z,109.33
2019-01-18T18:57:30.119Z,120.83
2019-01-18T19:01:04.611Z,151.43
2019-01-18T19:04:54.865Z,142.70
2019-01-18T19:08:35.723Z,133.67
2019-01-18T19:11:54.212Z,120.30
2019-01-18T19:14:58.257Z,196.23
2019-01-18T19:18:29.494Z,184.53
2019-01-18T19:21:55.557Z,161.07
2019-01-18T19:25:26.828Z,150.70
2019-01-18T19:28:51.991Z,199.20
2019-01-18T19:32:04.309Z,207.13
2019-01-18T19:35:52.001Z,213.70
2019-01-18T19:39:15.646Z,213.80
2019-01-18T19:42:40.937Z,206.40
2019-01-18T19:46:16.637Z,230.60
2019-01-18T19:49:24.065Z,185.70
2019-01-18T19:52:38.207Z,227.70
2019-01-18T19:55:45.176Z,201.27
2019-01-18T19:59:43.469Z,145.30
2019-01-18T20:03:02.788Z,159.30
2019-01-18T20:06:36.838Z,154.43
2019-01-18T20:09:46.471Z,146.70
2019-01-18T20:12:59.990Z,163.87
2019-01-18T20:16:18.089Z,168.67
2019-01-18T20:19:57.189Z,162.17
2019-01-18T20:23:30.315Z,232.13
2019-01-18T20:27:03.417Z,162.73
2019-01-18T20:30:41.203Z,122.30
2019-01-18T20:34:18.515Z,137.70
2019-01-18T20:37:35.460Z,134.00
2019-01-18T20:40:48.606Z,119.70
2019-01-18T20:43:52.445Z,112.73
2019-01-18T20:47:07.842Z,127.90
2019-01-18T20:50:07.262Z,119.13
2019-01-18T20:53:15.147Z,126.20
2019-01-18T20:56:49.433Z,120.27
2019-01-18T21:00:11.737Z,102.23
2019-01-18T21:03:55.869Z,99.70
2019-01-18T21:07:15.650Z,101.00
2019-01-18T21:10:41.276Z,94.93
2019-01-18T21:14:17.416Z,95.83
2019-01-18T21:17:49.229Z,85.00
2019-01-18T21:21:21.250Z,76.23
2019-01-18T21:25:07.673Z,86.20
2019-01-18T21:28:21.368Z,102.83
2019-01-18T21:31:34.958Z,94.87
2019-01-18T21:34:37.590Z,98.90
2019-01-18T21:38:06.583Z,93.30
2019-01-18T21:41:10.369Z,117.67
2019-01-18T21:45:00.608Z,117.40
2019-01-18T21:48:23.855Z,76.20
2019-01-18T21:51:50.386Z,78.37
2019-01-18T21:55:27.160Z,88.30
2019-01-18T21:58:57.048Z,92.37
2019-01-18T22:01:59.982Z,95.53
2019-01-18T22:04:50.293Z,101.03
2019-01-18T22:08:19.556Z,115.57
2019-01-18T22:11:23.572Z,109.23
2019-01-18T22:14:51.901Z,113.43
2019-01-18T22:18:04.973Z,146.70
2019-01-18T22:21:41.809Z,117.00
2019-01-18T22:25:23.970Z,126.13
2019-01-18T22:28:42.388Z,118.60
2019-01-18T22:32:32.997Z,98.90
2019-01-18T22:36:08.171Z,183.37
2019-01-18T22:39:18.196Z,100.50
2019-01-18T22:42:33.456Z,112.70
2019-01-18T22:45:46.756Z,124.47
2019-01-18T22:49:07.054Z,120.00
2019-01-18T22:52:19.052Z,115.70
2019-01-18T22:56:09.995Z,125.43
2019-01-18T22:59:38.249Z,158.97
2019-01-18T23:02:59.376Z,117.50
2019-01-18T23:06:10.403Z,101.67
2019-01-18T23:09:37.802Z,108.83
2019-01-18T23:12:54.129Z,128.70
2019-01-18T23:16:30.625Z,109.00
2019-01-18T23:19:44.994Z,113.40
2019-01-18T23:23:03.663Z,102.60
2019-01-18T23:26:06.350Z,98.50
2019-01-18T23:29:28.015Z,109.67
2019-01-18T23:33:02.787Z,106.73
2019-01-18T23:36:31.215Z,138.13
2019-01-18T23:40:11.303Z,131.77
2019-01-18T23:43:31.560Z,131.93
2019-01-18T23:46:39.333Z,148.33
2019-01-18T23:50:18.260Z,215.43
2019-01-18T23:53:18.560Z,163.70
2019-01-18T23:56:34.051Z,155.37
2019-01-18T23:59:32.113Z,169.17
